createdAt,value
2019-05-19T00:01:01.111Z,12.74
2019-05-19T00:03:29.399Z,12.77
2019-05-19T00:05:57.684Z,12.68
2019-05-19T00:08:25.970Z,12.68
2019-05-19T00:10:54.242Z,12.77
2019-05-19T00:13:22.537Z,12.75
2019-05-19T00:15:50.810Z,12.73
2019-05-19T00:18:19.080Z,12.75
2019-05-19T00:20:47.357Z,12.75
2019-05-19T00:23:15.641Z,12.73
2019-05-19T00:25:43.925Z,12.79
2019-05-19T00:28:12.228Z,12.76
2019-05-19T00:30:40.518Z,12.77
2019-05-19T00:33:08.805Z,12.83
2019-05-19T00:35:37.091Z,12.80
2019-05-19T00:38:05.378Z,12.85
2019-05-19T00:40:33.676Z,12.59
2019-05-19T00:43:01.949Z,12.59
2019-05-19T00:45:30.240Z,12.66
2019-05-19T00:47:58.512Z,12.54
2019-05-19T00:50:26.794Z,12.42
2019-05-19T00:52:55.068Z,12.42
2019-05-19T00:55:23.355Z,12.36
2019-05-19T00:57:51.802Z,12.46
2019-05-19T01:00:21.728Z,12.45
2019-05-19T01:02:50.003Z,12.47
2019-05-19T01:05:20.687Z,12.49
2019-05-19T01:07:48.295Z,12.45
2019-05-19T01:10:16.656Z,12.38
2019-05-19T01:12:44.958Z,12.30
2019-05-19T01:15:13.370Z,12.26
2019-05-19T01:17:41.649Z,12.28
2019-05-19T01:20:10.279Z,12.30
2019-05-19T01:22:38.579Z,12.31
2019-05-19T01:25:07.612Z,12.23
2019-05-19T01:27:35.887Z,12.20
2019-05-19T01:30:08.988Z,12.04
2019-05-19T01:32:37.263Z,11.94
2019-05-19T01:35:05.619Z,11.87
2019-05-19T01:37:33.932Z,11.92
2019-05-19T01:40:02.518Z,11.84
2019-05-19T01:42:30.865Z,11.92
2019-05-19T01:44:59.143Z,11.91
2019-05-19T01:47:27.430Z,11.93
2019-05-19T01:50:15.100Z,11.95
2019-05-19T01:52:25.719Z,11.97
2019-05-19T01:54:53.990Z,11.96
2019-05-19T01:57:22.282Z,11.90
2019-05-19T01:59:50.550Z,11.87
2019-05-19T02:02:18.832Z,11.89
2019-05-19T02:04:47.104Z,11.90
2019-05-19T02:07:15.394Z,11.81
2019-05-19T02:09:43.692Z,11.81
2019-05-19T02:12:11.975Z,11.86
2019-05-19T02:14:40.260Z,11.78
2019-05-19T02:17:08.542Z,11.84
2019-05-19T02:19:36.829Z,11.71
2019-05-19T02:22:05.123Z,11.66
2019-05-19T02:24:33.417Z,11.67
2019-05-19T02:27:01.697Z,11.73
2019-05-19T02:29:29.978Z,11.71
2019-05-19T02:31:58.251Z,11.65
2019-05-19T02:34:26.561Z,11.63
2019-05-19T02:36:54.824Z,11.64
2019-05-19T02:39:23.116Z,11.68
2019-05-19T02:41:52.940Z,11.57
2019-05-19T02:44:21.713Z,11.57
2019-05-19T02:46:50.843Z,11.56
2019-05-19T02:49:19.490Z,11.57
2019-05-19T02:51:49.643Z,11.57
2019-05-19T02:54:18.167Z,11.60
2019-05-19T02:56:47.609Z,11.57
2019-05-19T02:59:16.176Z,11.50
2019-05-19T03:02:02.151Z,11.47
2019-05-19T03:04:30.489Z,11.42
2019-05-19T03:06:58.809Z,11.43
2019-05-19T03:09:27.084Z,11.51
2019-05-19T03:11:55.361Z,11.46
2019-05-19T03:14:23.652Z,11.48
2019-05-19T03:16:51.976Z,11.51
2019-05-19T03:19:20.193Z,11.56
2019-05-19T03:21:48.478Z,11.51
2019-05-19T03:24:16.765Z,11.52
2019-05-19T03:26:45.037Z,11.56
2019-05-19T03:29:14.955Z,11.58
2019-05-19T03:31:47.597Z,11.63
2019-05-19T03:34:15.873Z,11.63
2019-05-19T03:36:44.168Z,11.53
2019-05-19T03:39:12.443Z,11.53
2019-05-19T03:41:40.731Z,11.54
2019-05-19T03:44:09.016Z,11.63
2019-05-19T03:46:37.308Z,11.69
2019-05-19T03:49:05.591Z,11.65
2019-05-19T03:51:33.932Z,11.68
2019-05-19T03:54:02.177Z,11.70
2019-05-19T03:56:30.457Z,11.63
2019-05-19T03:58:58.736Z,11.69
2019-05-19T04:01:27.028Z,11.68
2019-05-19T04:03:55.343Z,11.62
2019-05-19T04:06:23.624Z,11.64
2019-05-19T04:08:51.918Z,11.62
2019-05-19T04:11:20.219Z,11.68
2019-05-19T04:13:48.555Z,11.74
2019-05-19T04:16:16.802Z,11.74
2019-05-19T04:18:45.091Z,11.78
2019-05-19T04:21:13.385Z,11.79
2019-05-19T04:23:41.697Z,11.76
2019-05-19T04:26:09.974Z,11.76
2019-05-19T04:28:38.267Z,11.75
2019-05-19T04:31:06.553Z,11.73
2019-05-19T04:33:34.827Z,11.76
2019-05-19T04:36:03.123Z,11.79
2019-05-19T04:38:31.396Z,11.91
2019-05-19T04:40:59.686Z,11.92
2019-05-19T04:43:27.973Z,11.90
2019-05-19T04:45:56.293Z,11.77
2019-05-19T04:48:24.592Z,11.81
2019-05-19T04:50:52.888Z,11.88
2019-05-19T04:53:21.284Z,11.75
2019-05-19T04:55:49.536Z,11.76
2019-05-19T04:58:17.842Z,11.78
2019-05-19T05:00:46.136Z,11.81
2019-05-19T05:03:14.421Z,11.85
2019-05-19T05:05:42.724Z,11.90
2019-05-19T05:08:27.762Z,12.03
2019-05-19T05:10:41.004Z,12.05
2019-05-19T05:13:09.277Z,12.04
2019-05-19T05:15:37.614Z,12.10
2019-05-19T05:18:05.894Z,12.18
2019-05-19T05:20:34.190Z,12.22
2019-05-19T05:23:02.605Z,12.30
2019-05-19T05:25:30.828Z,12.28
2019-05-19T05:27:59.106Z,12.23
2019-05-19T05:30:27.394Z,12.24
2019-05-19T05:32:55.695Z,12.16
2019-05-19T05:35:23.980Z,12.15
2019-05-19T05:37:52.271Z,12.07
2019-05-19T05:40:20.710Z,12.00
2019-05-19T05:42:49.005Z,12.15
2019-05-19T05:45:17.287Z,12.22
2019-05-19T05:47:45.577Z,12.12
2019-05-19T05:50:13.921Z,12.11
2019-05-19T05:52:42.223Z,12.09
2019-05-19T05:55:10.703Z,12.16
2019-05-19T05:57:38.971Z,12.05
2019-05-19T06:00:09.047Z,12.08
2019-05-19T06:02:37.400Z,12.09
2019-05-19T06:05:06.364Z,11.99
2019-05-19T06:07:34.639Z,11.97
2019-05-19T06:10:02.933Z,12.00
2019-05-19T06:12:31.239Z,12.09
2019-05-19T06:14:59.519Z,12.25
2019-05-19T06:17:27.796Z,12.28
2019-05-19T06:19:56.093Z,12.36
2019-05-19T06:22:24.378Z,12.47
2019-05-19T06:24:52.664Z,12.42
2019-05-19T06:27:20.945Z,12.56
2019-05-19T06:29:49.256Z,12.61
2019-05-19T06:32:21.809Z,12.67
2019-05-19T06:34:50.090Z,12.72
2019-05-19T06:37:18.383Z,12.67
2019-05-19T06:39:46.678Z,12.77
2019-05-19T06:42:14.976Z,12.86
2019-05-19T06:44:43.258Z,12.85
2019-05-19T06:47:11.537Z,12.89
2019-05-19T06:49:39.818Z,12.94
2019-05-19T06:52:08.117Z,13.04
2019-05-19T06:54:36.394Z,13.00
2019-05-19T06:57:04.667Z,12.95
2019-05-19T06:59:32.944Z,12.92
2019-05-19T07:02:01.247Z,12.87
2019-05-19T07:04:29.594Z,12.86
2019-05-19T07:06:57.925Z,12.86
2019-05-19T07:09:26.524Z,12.90
2019-05-19T07:11:54.855Z,12.86
2019-05-19T07:14:23.161Z,12.83
2019-05-19T07:16:51.505Z,12.87
2019-05-19T07:19:19.799Z,12.94
2019-05-19T07:21:48.093Z,12.96
2019-05-19T07:24:16.371Z,12.96
2019-05-19T07:26:44.643Z,13.03
2019-05-19T07:29:12.927Z,13.12
2019-05-19T07:31:41.223Z,13.10
2019-05-19T07:34:09.500Z,13.17
2019-05-19T07:36:37.801Z,13.38
2019-05-19T07:39:07.646Z,13.39
2019-05-19T07:41:35.918Z,13.23
2019-05-19T07:44:04.209Z,13.36
2019-05-19T07:46:32.487Z,13.30
2019-05-19T07:49:00.802Z,13.36
2019-05-19T07:51:29.071Z,13.47
2019-05-19T07:53:57.347Z,13.34
2019-05-19T07:56:25.650Z,13.45
2019-05-19T07:58:53.952Z,13.45
2019-05-19T08:01:22.227Z,13.63
2019-05-19T08:03:50.522Z,13.61
2019-05-19T08:06:18.820Z,13.70
2019-05-19T08:08:47.165Z,13.73
2019-05-19T08:11:15.709Z,13.89
2019-05-19T08:13:44.349Z,13.80
2019-05-19T08:16:12.828Z,13.88
2019-05-19T08:18:41.099Z,13.98
2019-05-19T08:21:09.379Z,13.96
2019-05-19T08:23:38.112Z,14.22
2019-05-19T08:26:06.382Z,14.37
2019-05-19T08:28:34.676Z,14.33
2019-05-19T08:31:02.949Z,14.36
2019-05-19T08:33:31.283Z,14.51
2019-05-19T08:35:59.569Z,14.52
2019-05-19T08:38:27.847Z,14.58
2019-05-19T08:40:56.151Z,14.48
2019-05-19T08:43:24.415Z,14.69
2019-05-19T08:45:52.692Z,14.90
2019-05-19T08:48:20.968Z,14.77
2019-05-19T08:50:49.256Z,14.73
2019-05-19T08:53:17.536Z,14.78
2019-05-19T08:55:45.823Z,14.90
2019-05-19T08:58:14.129Z,14.97
2019-05-19T09:00:42.435Z,15.08
2019-05-19T09:03:10.694Z,15.04
2019-05-19T09:05:39.024Z,15.24
2019-05-19T09:08:07.380Z,15.23
2019-05-19T09:10:35.671Z,15.25
2019-05-19T09:13:03.964Z,15.36
2019-05-19T09:15:32.239Z,15.32
2019-05-19T09:18:00.519Z,15.33
2019-05-19T09:20:28.795Z,15.40
2019-05-19T09:22:57.086Z,15.46
2019-05-19T09:25:25.387Z,15.43
2019-05-19T09:27:53.678Z,15.61
2019-05-19T09:30:21.977Z,15.82
2019-05-19T09:32:50.277Z,16.07
2019-05-19T09:35:18.627Z,16.16
2019-05-19T09:37:46.918Z,16.11
2019-05-19T09:40:15.266Z,16.17
2019-05-19T09:42:43.569Z,16.24
2019-05-19T09:45:12.156Z,16.50
2019-05-19T09:47:40.446Z,16.68
2019-05-19T09:50:09.365Z,16.88
2019-05-19T09:52:37.699Z,16.99
2019-05-19T09:55:06.135Z,17.11
2019-05-19T09:57:34.447Z,17.33
2019-05-19T10:00:03.086Z,17.41
2019-05-19T10:02:31.373Z,17.33
2019-05-19T10:04:59.644Z,17.46
2019-05-19T10:07:27.926Z,17.43
2019-05-19T10:10:10.913Z,17.53
2019-05-19T10:12:39.197Z,17.45
2019-05-19T10:15:07.813Z,17.79
2019-05-19T10:17:36.353Z,17.71
2019-05-19T10:20:06.574Z,17.78
2019-05-19T10:22:34.864Z,18.18
2019-05-19T10:25:20.270Z,18.33
2019-05-19T10:27:33.418Z,18.47
2019-05-19T10:30:01.676Z,18.54
2019-05-19T10:32:29.945Z,18.61
2019-05-19T10:34:58.232Z,18.89
2019-05-19T10:37:26.491Z,19.03
2019-05-19T10:39:54.793Z,19.24
2019-05-19T10:42:23.079Z,19.26
2019-05-19T10:44:51.350Z,19.20
2019-05-19T10:47:19.646Z,19.25
2019-05-19T10:49:47.925Z,19.33
2019-05-19T10:52:16.197Z,19.38
2019-05-19T10:54:44.483Z,19.32
2019-05-19T10:57:12.773Z,19.54
2019-05-19T10:59:41.044Z,19.63
2019-05-19T11:02:09.340Z,19.88
2019-05-19T11:04:37.624Z,19.75
2019-05-19T11:07:06.195Z,19.79
2019-05-19T11:09:34.470Z,19.91
2019-05-19T11:12:02.770Z,20.01
2019-05-19T11:14:31.064Z,20.01
2019-05-19T11:16:59.356Z,20.14
2019-05-19T11:19:27.635Z,20.19
2019-05-19T11:21:55.906Z,20.30
2019-05-19T11:24:24.185Z,20.50
2019-05-19T11:26:52.460Z,20.54
2019-05-19T11:29:20.752Z,20.64
2019-05-19T11:31:49.028Z,20.54
2019-05-19T11:34:17.305Z,20.66
2019-05-19T11:36:45.593Z,20.65
2019-05-19T11:39:13.880Z,20.76
2019-05-19T11:41:42.158Z,21.04
2019-05-19T11:44:10.442Z,21.19
2019-05-19T11:46:38.767Z,21.17
2019-05-19T11:49:07.096Z,21.16
2019-05-19T11:51:35.379Z,21.18
2019-05-19T11:54:03.670Z,21.24
2019-05-19T11:56:31.949Z,21.35
2019-05-19T11:59:00.262Z,21.41
2019-05-19T12:01:28.541Z,21.21
2019-05-19T12:03:56.839Z,21.31
2019-05-19T12:06:38.140Z,21.29
2019-05-19T12:08:55.137Z,21.30
2019-05-19T12:11:23.407Z,21.44
2019-05-19T12:13:51.705Z,21.53
2019-05-19T12:16:19.980Z,21.48
2019-05-19T12:18:48.268Z,21.41
2019-05-19T12:21:16.566Z,21.40
2019-05-19T12:23:44.862Z,21.41
2019-05-19T12:26:22.821Z,21.36
2019-05-19T12:28:43.148Z,21.61
2019-05-19T12:31:11.435Z,21.69
2019-05-19T12:33:51.647Z,21.84
2019-05-19T12:36:10.197Z,21.95
2019-05-19T12:38:38.473Z,21.99
2019-05-19T12:41:06.769Z,22.11
2019-05-19T12:43:35.046Z,22.18
2019-05-19T12:46:03.414Z,22.11
2019-05-19T12:48:31.711Z,22.16
2019-05-19T12:51:00.012Z,22.42
2019-05-19T12:53:28.293Z,22.40
2019-05-19T12:55:56.576Z,22.19
2019-05-19T12:58:24.862Z,22.00
2019-05-19T13:00:53.150Z,21.79
2019-05-19T13:03:21.470Z,21.78
2019-05-19T13:05:49.752Z,21.55
2019-05-19T13:08:18.032Z,21.40
2019-05-19T13:10:46.308Z,21.46
2019-05-19T13:13:14.593Z,21.36
2019-05-19T13:15:42.891Z,21.30
2019-05-19T13:18:11.241Z,21.47
2019-05-19T13:20:39.535Z,21.78
2019-05-19T13:23:07.813Z,21.72
2019-05-19T13:25:36.140Z,21.76
2019-05-19T13:28:04.623Z,21.68
2019-05-19T13:30:32.904Z,21.61
2019-05-19T13:33:01.189Z,21.62
2019-05-19T13:35:29.552Z,21.46
2019-05-19T13:37:57.789Z,21.38
2019-05-19T13:40:26.120Z,21.28
2019-05-19T13:42:54.352Z,21.29
2019-05-19T13:45:22.800Z,21.14
2019-05-19T13:47:51.087Z,21.04
2019-05-19T13:50:19.453Z,21.15
2019-05-19T13:52:50.973Z,21.00
2019-05-19T13:55:17.774Z,21.04
2019-05-19T13:57:46.077Z,21.00
2019-05-19T14:00:14.407Z,21.09
2019-05-19T14:02:42.721Z,21.17
2019-05-19T14:05:11.066Z,21.33
2019-05-19T14:07:39.352Z,21.26
2019-05-19T14:10:07.916Z,21.48
2019-05-19T14:12:36.267Z,21.37
2019-05-19T14:15:05.980Z,21.18
2019-05-19T14:17:34.261Z,20.84
2019-05-19T14:20:02.800Z,20.75
2019-05-19T14:22:31.472Z,20.82
2019-05-19T14:24:59.761Z,20.77
2019-05-19T14:27:30.751Z,20.69
2019-05-19T14:29:58.086Z,20.61
2019-05-19T14:32:26.354Z,20.51
2019-05-19T14:34:54.650Z,20.51
2019-05-19T14:37:22.919Z,20.65
2019-05-19T14:39:51.216Z,20.68
2019-05-19T14:42:21.199Z,20.56
2019-05-19T14:44:49.481Z,20.28
2019-05-19T14:47:17.776Z,20.06
2019-05-19T14:49:46.057Z,20.18
2019-05-19T14:52:14.340Z,20.25
2019-05-19T14:54:42.612Z,20.23
2019-05-19T14:57:10.887Z,20.14
2019-05-19T14:59:39.173Z,20.14
2019-05-19T15:02:07.451Z,20.03
2019-05-19T15:04:35.729Z,20.09
2019-05-19T15:07:04.015Z,20.17
2019-05-19T15:09:32.283Z,20.22
2019-05-19T15:12:00.583Z,20.27
2019-05-19T15:14:28.874Z,20.28
2019-05-19T15:16:58.175Z,20.00
2019-05-19T15:19:26.573Z,20.12
2019-05-19T15:21:54.909Z,20.16
2019-05-19T15:24:23.188Z,20.28
2019-05-19T15:26:51.483Z,20.19
2019-05-19T15:29:19.794Z,20.04
2019-05-19T15:31:48.102Z,19.85
2019-05-19T15:34:16.380Z,19.89
2019-05-19T15:36:44.697Z,19.89
2019-05-19T15:39:14.608Z,19.84
2019-05-19T15:41:42.987Z,19.82
2019-05-19T15:44:11.275Z,19.75
2019-05-19T15:46:39.570Z,19.72
2019-05-19T15:49:07.864Z,19.80
2019-05-19T15:51:37.694Z,19.61
2019-05-19T15:54:06.330Z,19.73
2019-05-19T15:56:34.628Z,19.76
2019-05-19T15:59:02.909Z,19.73
2019-05-19T16:01:31.219Z,19.42
2019-05-19T16:03:59.513Z,19.56
2019-05-19T16:06:27.797Z,19.45
2019-05-19T16:08:56.087Z,19.29
2019-05-19T16:11:24.373Z,19.31
2019-05-19T16:13:52.669Z,19.22
2019-05-19T16:16:20.967Z,19.29
2019-05-19T16:18:49.259Z,19.29
2019-05-19T16:21:17.555Z,19.29
2019-05-19T16:23:45.833Z,19.47
2019-05-19T16:26:14.130Z,19.47
2019-05-19T16:28:42.414Z,19.54
2019-05-19T16:31:10.699Z,19.41
2019-05-19T16:33:40.046Z,19.50
2019-05-19T16:36:08.329Z,19.42
2019-05-19T16:38:36.623Z,19.32
2019-05-19T16:41:04.919Z,19.35
2019-05-19T16:43:33.215Z,19.27
2019-05-19T16:46:01.510Z,19.16
2019-05-19T16:48:29.790Z,19.02
2019-05-19T16:50:58.078Z,18.97
2019-05-19T16:53:26.366Z,18.86
2019-05-19T16:55:54.640Z,18.71
2019-05-19T16:58:22.934Z,18.58
2019-05-19T17:00:51.215Z,18.70
2019-05-19T17:03:19.509Z,18.62
2019-05-19T17:05:47.811Z,18.59
2019-05-19T17:08:16.087Z,18.33
2019-05-19T17:10:44.376Z,18.34
2019-05-19T17:13:12.663Z,18.29
2019-05-19T17:15:40.940Z,18.25
2019-05-19T17:18:09.229Z,18.41
2019-05-19T17:20:37.514Z,18.32
2019-05-19T17:23:05.797Z,18.20
2019-05-19T17:25:34.105Z,18.08
2019-05-19T17:28:02.407Z,17.78
2019-05-19T17:30:30.760Z,17.68
2019-05-19T17:32:59.013Z,17.70
2019-05-19T17:35:27.308Z,17.65
2019-05-19T17:37:55.586Z,17.57
2019-05-19T17:40:23.887Z,17.55
2019-05-19T17:42:52.165Z,17.52
2019-05-19T17:45:20.610Z,17.39
2019-05-19T17:47:48.895Z,17.41
2019-05-19T17:50:20.356Z,17.40
2019-05-19T17:52:48.635Z,17.40
2019-05-19T17:55:16.933Z,17.14
2019-05-19T17:57:46.082Z,16.77
2019-05-19T18:00:16.084Z,16.64
2019-05-19T18:02:44.400Z,16.68
2019-05-19T18:05:12.701Z,16.61
2019-05-19T18:07:40.995Z,16.70
2019-05-19T18:10:09.421Z,16.65
2019-05-19T18:12:37.702Z,16.62
2019-05-19T18:15:07.727Z,16.48
2019-05-19T18:17:36.023Z,16.39
2019-05-19T18:20:05.946Z,16.20
2019-05-19T18:22:34.240Z,16.02
2019-05-19T18:25:02.605Z,15.91
2019-05-19T18:27:30.913Z,15.85
2019-05-19T18:29:59.206Z,15.76
2019-05-19T18:32:27.515Z,15.64
2019-05-19T18:34:55.791Z,15.48
2019-05-19T18:37:24.155Z,15.42
2019-05-19T18:39:52.604Z,15.40
2019-05-19T18:42:20.898Z,15.30
2019-05-19T18:44:49.199Z,15.12
2019-05-19T18:47:17.476Z,15.00
2019-05-19T18:49:45.769Z,14.80
2019-05-19T18:52:14.049Z,14.86
2019-05-19T18:54:42.337Z,14.83
2019-05-19T18:57:10.640Z,14.79
2019-05-19T18:59:46.993Z,14.66
2019-05-19T19:02:08.957Z,14.55
2019-05-19T19:04:37.259Z,14.47
2019-05-19T19:07:05.551Z,14.47
2019-05-19T19:09:34.434Z,14.42
2019-05-19T19:12:02.716Z,14.27
2019-05-19T19:14:31.009Z,14.30
2019-05-19T19:16:59.298Z,14.26
2019-05-19T19:19:27.611Z,14.23
2019-05-19T19:21:55.903Z,14.25
2019-05-19T19:24:24.202Z,14.11
2019-05-19T19:26:52.497Z,14.04
2019-05-19T19:29:20.801Z,14.06
2019-05-19T19:31:49.105Z,14.04
2019-05-19T19:34:17.493Z,14.08
2019-05-19T19:36:46.537Z,14.03
2019-05-19T19:39:14.821Z,14.04
2019-05-19T19:41:43.107Z,14.11
2019-05-19T19:44:11.409Z,14.01
2019-05-19T19:46:39.702Z,14.11
2019-05-19T19:49:07.999Z,14.10
2019-05-19T19:51:36.296Z,14.04
2019-05-19T19:54:04.592Z,13.96
2019-05-19T19:56:32.892Z,13.88
2019-05-19T19:59:01.200Z,13.81
2019-05-19T20:01:29.478Z,13.85
2019-05-19T20:03:57.770Z,13.81
2019-05-19T20:06:26.074Z,13.83
2019-05-19T20:08:54.371Z,13.79
2019-05-19T20:11:22.672Z,13.83
2019-05-19T20:13:50.995Z,13.75
2019-05-19T20:16:19.289Z,13.80
2019-05-19T20:18:47.552Z,13.76
2019-05-19T20:21:15.847Z,13.70
2019-05-19T20:23:44.142Z,13.71
2019-05-19T20:26:12.495Z,13.73
2019-05-19T20:28:40.745Z,13.68
2019-05-19T20:31:09.030Z,13.54
2019-05-19T20:33:37.369Z,13.54
2019-05-19T20:36:05.660Z,13.56
2019-05-19T20:38:33.960Z,13.52
2019-05-19T20:41:02.248Z,13.56
2019-05-19T20:43:30.547Z,13.59
2019-05-19T20:45:58.853Z,13.47
2019-05-19T20:48:27.157Z,13.47
2019-05-19T20:50:55.462Z,13.55
2019-05-19T20:53:23.752Z,13.57
2019-05-19T20:55:52.047Z,13.59
2019-05-19T20:58:20.331Z,13.55
2019-05-19T21:00:51.716Z,13.60
2019-05-19T21:03:19.573Z,13.51
2019-05-19T21:05:47.889Z,13.43
2019-05-19T21:08:16.239Z,13.40
2019-05-19T21:10:44.508Z,13.39
2019-05-19T21:13:12.817Z,13.45
2019-05-19T21:15:41.130Z,13.33
2019-05-19T21:18:09.410Z,13.41
2019-05-19T21:20:37.691Z,13.38
2019-05-19T21:23:05.995Z,13.40
2019-05-19T21:25:35.042Z,13.33
2019-05-19T21:28:03.346Z,13.26
2019-05-19T21:30:31.653Z,13.26
2019-05-19T21:32:59.939Z,13.24
2019-05-19T21:35:28.334Z,13.25
2019-05-19T21:37:56.628Z,13.36
2019-05-19T21:40:24.916Z,13.26
2019-05-19T21:42:53.203Z,13.29
2019-05-19T21:45:21.504Z,13.24
2019-05-19T21:47:49.809Z,13.31
2019-05-19T21:50:18.105Z,13.27
2019-05-19T21:52:46.490Z,13.25
2019-05-19T21:55:14.797Z,13.24
2019-05-19T21:57:43.090Z,13.22
2019-05-19T22:00:11.719Z,13.14
2019-05-19T22:02:39.998Z,13.12
2019-05-19T22:05:08.359Z,13.16
2019-05-19T22:07:54.235Z,13.26
2019-05-19T22:10:22.544Z,13.24
2019-05-19T22:12:50.866Z,13.31
2019-05-19T22:15:19.148Z,13.36
2019-05-19T22:17:47.438Z,13.32
2019-05-19T22:20:15.747Z,13.20
2019-05-19T22:22:44.049Z,13.11
2019-05-19T22:25:12.426Z,13.16
2019-05-19T22:27:40.761Z,13.22
2019-05-19T22:30:09.126Z,13.12
2019-05-19T22:32:37.419Z,13.14
2019-05-19T22:35:07.081Z,13.13
2019-05-19T22:37:35.363Z,13.05
2019-05-19T22:40:05.727Z,13.08
2019-05-19T22:42:34.017Z,13.02
2019-05-19T22:45:02.335Z,13.08
2019-05-19T22:47:30.617Z,13.08
2019-05-19T22:49:58.891Z,13.03
2019-05-19T22:52:27.182Z,12.99
2019-05-19T22:54:55.484Z,12.98
2019-05-19T22:57:23.809Z,12.96
2019-05-19T22:59:52.094Z,13.04
2019-05-19T23:02:20.647Z,13.04
2019-05-19T23:04:48.919Z,13.01
2019-05-19T23:07:17.213Z,12.91
2019-05-19T23:09:45.500Z,12.92
2019-05-19T23:12:13.799Z,12.78
2019-05-19T23:14:42.136Z,12.83
2019-05-19T23:17:10.427Z,12.78
2019-05-19T23:19:38.715Z,12.76
2019-05-19T23:22:07.002Z,12.85
2019-05-19T23:24:35.287Z,12.77
2019-05-19T23:27:03.569Z,12.70
2019-05-19T23:29:31.842Z,12.61
2019-05-19T23:32:07.036Z,12.61
2019-05-19T23:34:30.140Z,12.47
2019-05-19T23:36:58.411Z,12.37
2019-05-19T23:39:26.716Z,12.39
2019-05-19T23:41:55.028Z,12.35
2019-05-19T23:44:23.338Z,12.42
2019-05-19T23:46:51.612Z,12.51
2019-05-19T23:49:19.942Z,12.56
2019-05-19T23:51:48.237Z,12.57
2019-05-19T23:54:16.528Z,12.39
2019-05-19T23:56:44.807Z,12.37
2019-05-19T23:59:13.105Z,12.35
